sensor_id;sensor_type;location;lat;lon;timestamp;pressure;altitude;pressure_sealevel;temperature;humidity
32638;BME280;19045;52.268;10.506;2023-04-28T00:01:13;100834.91;;;7.57;56.30
32638;BME280;19045;52.268;10.506;2023-04-28T00:03:40;100832.50;;;7.55;56.49
32638;BME280;19045;52.268;10.506;2023-04-28T00:06:09;100827.13;;;7.55;56.59
32638;BME280;19045;52.268;10.506;2023-04-28T00:08:36;100834.69;;;7.58;56.65
32638;BME280;19045;52.268;10.506;2023-04-28T00:11:03;100820.00;;;7.49;56.64
32638;BME280;19045;52.268;10.506;2023-04-28T00:13:29;100810.13;;;7.50;56.87
32638;BME280;19045;52.268;10.506;2023-04-28T00:15:56;100807.25;;;7.51;57.01
32638;BME280;19045;52.268;10.506;2023-04-28T00:18:24;100804.78;;;7.50;56.70
32638;BME280;19045;52.268;10.506;2023-04-28T00:20:50;100805.16;;;7.53;56.75
32638;BME280;19045;52.268;10.506;2023-04-28T00:23:18;100802.09;;;7.50;56.82
32638;BME280;19045;52.268;10.506;2023-04-28T00:25:50;100806.28;;;7.46;56.94
32638;BME280;19045;52.268;10.506;2023-04-28T00:28:16;100806.78;;;7.54;57.23
32638;BME280;19045;52.268;10.506;2023-04-28T00:30:43;100800.03;;;7.52;56.83
32638;BME280;19045;52.268;10.506;2023-04-28T00:33:09;100794.56;;;7.47;56.77
32638;BME280;19045;52.268;10.506;2023-04-28T00:35:36;100786.31;;;7.48;57.08
32638;BME280;19045;52.268;10.506;2023-04-28T00:38:03;100782.47;;;7.56;57.02
32638;BME280;19045;52.268;10.506;2023-04-28T00:40:33;100784.47;;;7.49;56.75
32638;BME280;19045;52.268;10.506;2023-04-28T00:43:00;100784.00;;;7.52;57.06
32638;BME280;19045;52.268;10.506;2023-04-28T00:45:27;100772.59;;;7.56;56.23
32638;BME280;19045;52.268;10.506;2023-04-28T00:47:54;100774.00;;;7.47;57.07
32638;BME280;19045;52.268;10.506;2023-04-28T00:50:21;100764.22;;;7.53;56.29
32638;BME280;19045;52.268;10.506;2023-04-28T00:52:48;100768.06;;;7.45;56.82
32638;BME280;19045;52.268;10.506;2023-04-28T00:55:15;100778.31;;;7.48;56.57
32638;BME280;19045;52.268;10.506;2023-04-28T00:57:44;100773.16;;;7.47;56.88
32638;BME280;19045;52.268;10.506;2023-04-28T01:00:11;100776.53;;;7.42;56.63
32638;BME280;19045;52.268;10.506;2023-04-28T01:02:38;100778.59;;;7.40;56.72
32638;BME280;19045;52.268;10.506;2023-04-28T01:05:05;100769.78;;;7.40;57.31
32638;BME280;19045;52.268;10.506;2023-04-28T01:07:34;100767.25;;;7.45;56.72
32638;BME280;19045;52.268;10.506;2023-04-28T01:10:01;100749.94;;;7.47;56.69
32638;BME280;19045;52.268;10.506;2023-04-28T01:12:28;100763.50;;;7.46;56.76
32638;BME280;19045;52.268;10.506;2023-04-28T01:14:57;100755.63;;;7.51;56.49
32638;BME280;19045;52.268;10.506;2023-04-28T01:17:23;100747.84;;;7.49;57.50
32638;BME280;19045;52.268;10.506;2023-04-28T01:19:50;100751.94;;;7.52;56.32
32638;BME280;19045;52.268;10.506;2023-04-28T01:22:17;100754.81;;;7.50;56.64
32638;BME280;19045;52.268;10.506;2023-04-28T01:24:45;100752.38;;;7.49;56.39
32638;BME280;19045;52.268;10.506;2023-04-28T01:27:12;100738.78;;;7.50;56.20
32638;BME280;19045;52.268;10.506;2023-04-28T01:29:38;100738.09;;;7.55;55.65
32638;BME280;19045;52.268;10.506;2023-04-28T01:32:05;100732.75;;;7.55;56.04
32638;BME280;19045;52.268;10.506;2023-04-28T01:34:32;100734.25;;;7.51;55.90
32638;BME280;19045;52.268;10.506;2023-04-28T01:36:58;100728.91;;;7.51;56.22
32638;BME280;19045;52.268;10.506;2023-04-28T01:39:25;100728.69;;;7.52;56.22
32638;BME280;19045;52.268;10.506;2023-04-28T01:41:53;100725.44;;;7.62;55.24
32638;BME280;19045;52.268;10.506;2023-04-28T01:44:20;100723.81;;;7.61;54.96
32638;BME280;19045;52.268;10.506;2023-04-28T01:46:46;100717.19;;;7.52;55.50
32638;BME280;19045;52.268;10.506;2023-04-28T01:49:13;100725.06;;;7.47;55.60
32638;BME280;19045;52.268;10.506;2023-04-28T01:51:40;100723.34;;;7.52;55.36
32638;BME280;19045;52.268;10.506;2023-04-28T01:54:07;100720.75;;;7.46;55.59
32638;BME280;19045;52.268;10.506;2023-04-28T01:56:33;100720.31;;;7.49;55.44
32638;BME280;19045;52.268;10.506;2023-04-28T01:59:01;100720.31;;;7.49;55.08
32638;BME280;19045;52.268;10.506;2023-04-28T02:01:28;100699.72;;;7.49;55.63
32638;BME280;19045;52.268;10.506;2023-04-28T02:03:55;100706.94;;;7.49;55.63
32638;BME280;19045;52.268;10.506;2023-04-28T02:06:21;100708.09;;;7.53;55.63
32638;BME280;19045;52.268;10.506;2023-04-28T02:08:48;100699.16;;;7.47;55.78
32638;BME280;19045;52.268;10.506;2023-04-28T02:11:14;100704.63;;;7.52;55.20
32638;BME280;19045;52.268;10.506;2023-04-28T02:13:41;100689.53;;;7.58;54.58
32638;BME280;19045;52.268;10.506;2023-04-28T02:16:09;100692.56;;;7.61;55.13
32638;BME280;19045;52.268;10.506;2023-04-28T02:18:36;100680.47;;;7.59;54.99
32638;BME280;19045;52.268;10.506;2023-04-28T02:21:07;100681.50;;;7.58;54.74
32638;BME280;19045;52.268;10.506;2023-04-28T02:23:35;100684.75;;;7.60;54.47
32638;BME280;19045;52.268;10.506;2023-04-28T02:26:01;100688.00;;;7.50;54.92
32638;BME280;19045;52.268;10.506;2023-04-28T02:28:28;100678.94;;;7.51;55.38
32638;BME280;19045;52.268;10.506;2023-04-28T02:31:02;100677.91;;;7.52;55.02
32638;BME280;19045;52.268;10.506;2023-04-28T02:33:30;100683.56;;;7.56;55.05
32638;BME280;19045;52.268;10.506;2023-04-28T02:35:58;100672.88;;;7.56;54.99
32638;BME280;19045;52.268;10.506;2023-04-28T02:38:24;100670.69;;;7.53;55.16
32638;BME280;19045;52.268;10.506;2023-04-28T02:40:56;100656.75;;;7.51;54.89
32638;BME280;19045;52.268;10.506;2023-04-28T02:43:23;100656.59;;;7.46;54.86
32638;BME280;19045;52.268;10.506;2023-04-28T02:45:50;100642.34;;;7.52;54.81
32638;BME280;19045;52.268;10.506;2023-04-28T02:48:16;100640.03;;;7.55;55.21
32638;BME280;19045;52.268;10.506;2023-04-28T02:50:44;100641.75;;;7.50;54.78
32638;BME280;19045;52.268;10.506;2023-04-28T02:53:11;100639.66;;;7.52;54.56
32638;BME280;19045;52.268;10.506;2023-04-28T02:55:38;100635.56;;;7.49;54.48
32638;BME280;19045;52.268;10.506;2023-04-28T02:58:04;100641.28;;;7.53;55.10
32638;BME280;19045;52.268;10.506;2023-04-28T03:00:31;100631.19;;;7.55;54.40
32638;BME280;19045;52.268;10.506;2023-04-28T03:02:58;100640.81;;;7.56;54.66
32638;BME280;19045;52.268;10.506;2023-04-28T03:05:24;100632.00;;;7.55;54.62
32638;BME280;19045;52.268;10.506;2023-04-28T03:07:52;100623.84;;;7.62;54.00
32638;BME280;19045;52.268;10.506;2023-04-28T03:10:19;100621.19;;;7.62;54.23
32638;BME280;19045;52.268;10.506;2023-04-28T03:12:46;100619.66;;;7.54;54.10
32638;BME280;19045;52.268;10.506;2023-04-28T03:15:13;100627.47;;;7.67;53.87
32638;BME280;19045;52.268;10.506;2023-04-28T03:17:39;100623.97;;;7.67;53.27
32638;BME280;19045;52.268;10.506;2023-04-28T03:20:08;100620.47;;;7.66;53.74
32638;BME280;19045;52.268;10.506;2023-04-28T03:22:35;100611.28;;;7.74;53.23
32638;BME280;19045;52.268;10.506;2023-04-28T03:25:04;100613.41;;;7.72;53.74
32638;BME280;19045;52.268;10.506;2023-04-28T03:27:30;100602.44;;;7.73;53.03
32638;BME280;19045;52.268;10.506;2023-04-28T03:29:57;100602.09;;;7.70;53.38
32638;BME280;19045;52.268;10.506;2023-04-28T03:32:24;100594.44;;;7.73;53.69
32638;BME280;19045;52.268;10.506;2023-04-28T03:34:51;100588.88;;;7.75;53.81
32638;BME280;19045;52.268;10.506;2023-04-28T03:37:17;100589.44;;;7.77;53.41
32638;BME280;19045;52.268;10.506;2023-04-28T03:39:44;100580.50;;;7.71;53.87
32638;BME280;19045;52.268;10.506;2023-04-28T03:42:13;100574.91;;;7.73;54.14
32638;BME280;19045;52.268;10.506;2023-04-28T03:44:39;100575.16;;;7.71;53.92
32638;BME280;19045;52.268;10.506;2023-04-28T03:47:06;100573.03;;;7.73;53.55
32638;BME280;19045;52.268;10.506;2023-04-28T03:49:33;100572.81;;;7.75;54.18
32638;BME280;19045;52.268;10.506;2023-04-28T03:51:59;100578.38;;;7.73;54.36
32638;BME280;19045;52.268;10.506;2023-04-28T03:54:26;100572.56;;;7.76;54.04
32638;BME280;19045;52.268;10.506;2023-04-28T03:56:52;100577.56;;;7.73;54.42
32638;BME280;19045;52.268;10.506;2023-04-28T03:59:20;100565.72;;;7.69;54.12
32638;BME280;19045;52.268;10.506;2023-04-28T04:01:47;100566.88;;;7.73;54.26
32638;BME280;19045;52.268;10.506;2023-04-28T04:04:13;100570.38;;;7.73;54.29
32638;BME280;19045;52.268;10.506;2023-04-28T04:06:40;100565.50;;;7.70;54.55
32638;BME280;19045;52.268;10.506;2023-04-28T04:09:07;100559.78;;;7.67;54.44
32638;BME280;19045;52.268;10.506;2023-04-28T04:11:34;100560.00;;;7.77;54.57
32638;BME280;19045;52.268;10.506;2023-04-28T04:14:01;100557.91;;;7.79;54.56
32638;BME280;19045;52.268;10.506;2023-04-28T04:16:29;100564.78;;;7.75;54.63
32638;BME280;19045;52.268;10.506;2023-04-28T04:18:55;100561.88;;;7.76;55.23
32638;BME280;19045;52.268;10.506;2023-04-28T04:21:22;100558.59;;;7.86;54.31
32638;BME280;19045;52.268;10.506;2023-04-28T04:23:49;100565.59;;;7.87;54.89
32638;BME280;19045;52.268;10.506;2023-04-28T04:26:15;100558.03;;;7.84;54.31
32638;BME280;19045;52.268;10.506;2023-04-28T04:28:42;100559.19;;;7.88;54.65
32638;BME280;19045;52.268;10.506;2023-04-28T04:31:08;100552.06;;;7.94;54.22
32638;BME280;19045;52.268;10.506;2023-04-28T04:33:36;100557.19;;;7.95;54.25
32638;BME280;19045;52.268;10.506;2023-04-28T04:36:04;100548.44;;;8.00;54.07
32638;BME280;19045;52.268;10.506;2023-04-28T04:38:30;100548.31;;;8.06;53.78
32638;BME280;19045;52.268;10.506;2023-04-28T04:40:57;100558.44;;;8.04;54.17
32638;BME280;19045;52.268;10.506;2023-04-28T04:43:24;100549.00;;;8.13;53.77
32638;BME280;19045;52.268;10.506;2023-04-28T04:45:50;100547.63;;;8.11;53.79
32638;BME280;19045;52.268;10.506;2023-04-28T04:48:17;100556.66;;;8.21;53.90
32638;BME280;19045;52.268;10.506;2023-04-28T04:50:45;100551.38;;;8.26;53.78
32638;BME280;19045;52.268;10.506;2023-04-28T04:53:11;100552.66;;;8.36;53.01
32638;BME280;19045;52.268;10.506;2023-04-28T04:55:38;100551.38;;;8.38;52.96
32638;BME280;19045;52.268;10.506;2023-04-28T04:58:05;100548.06;;;8.48;52.48
32638;BME280;19045;52.268;10.506;2023-04-28T05:00:32;100530.94;;;8.49;52.60
32638;BME280;19045;52.268;10.506;2023-04-28T05:02:59;100526.69;;;8.64;52.71
32638;BME280;19045;52.268;10.506;2023-04-28T05:05:25;100541.63;;;8.77;52.47
32638;BME280;19045;52.268;10.506;2023-04-28T05:07:53;100534.16;;;8.79;51.59
32638;BME280;19045;52.268;10.506;2023-04-28T05:10:20;100531.47;;;8.79;52.45
32638;BME280;19045;52.268;10.506;2023-04-28T05:12:47;100535.63;;;9.03;51.82
32638;BME280;19045;52.268;10.506;2023-04-28T05:15:14;100529.53;;;9.24;50.95
32638;BME280;19045;52.268;10.506;2023-04-28T05:17:40;100533.63;;;9.49;50.87
32638;BME280;19045;52.268;10.506;2023-04-28T05:20:08;100515.38;;;9.67;49.91
32638;BME280;19045;52.268;10.506;2023-04-28T05:22:34;100518.47;;;9.81;50.07
32638;BME280;19045;52.268;10.506;2023-04-28T05:25:03;100522.97;;;9.75;50.00
32638;BME280;19045;52.268;10.506;2023-04-28T05:27:30;100522.66;;;9.72;49.83
32638;BME280;19045;52.268;10.506;2023-04-28T05:29:56;100515.38;;;9.67;50.53
32638;BME280;19045;52.268;10.506;2023-04-28T05:32:24;100509.03;;;9.73;50.61
32638;BME280;19045;52.268;10.506;2023-04-28T05:34:50;100513.25;;;9.69;50.77
32638;BME280;19045;52.268;10.506;2023-04-28T05:37:17;100503.22;;;9.60;50.97
32638;BME280;19045;52.268;10.506;2023-04-28T05:39:43;100516.72;;;9.48;51.05
32638;BME280;19045;52.268;10.506;2023-04-28T05:42:11;100506.00;;;9.48;51.95
32638;BME280;19045;52.268;10.506;2023-04-28T05:44:38;100511.63;;;9.47;51.75
32638;BME280;19045;52.268;10.506;2023-04-28T05:47:05;100512.13;;;9.44;51.77
32638;BME280;19045;52.268;10.506;2023-04-28T05:49:32;100517.16;;;9.40;51.93
32638;BME280;19045;52.268;10.506;2023-04-28T05:51:58;100518.78;;;9.41;52.40
32638;BME280;19045;52.268;10.506;2023-04-28T05:54:25;100509.44;;;9.44;52.20
32638;BME280;19045;52.268;10.506;2023-04-28T05:56:52;100505.66;;;9.45;52.37
32638;BME280;19045;52.268;10.506;2023-04-28T05:59:20;100510.47;;;9.43;52.57
32638;BME280;19045;52.268;10.506;2023-04-28T06:01:47;100493.66;;;9.47;52.50
32638;BME280;19045;52.268;10.506;2023-04-28T06:04:15;100500.75;;;9.37;52.54
32638;BME280;19045;52.268;10.506;2023-04-28T06:06:41;100500.66;;;9.31;53.33
32638;BME280;19045;52.268;10.506;2023-04-28T06:09:08;100499.75;;;9.43;52.82
32638;BME280;19045;52.268;10.506;2023-04-28T06:11:35;100498.25;;;9.30;53.45
32638;BME280;19045;52.268;10.506;2023-04-28T06:14:01;100492.75;;;9.20;53.27
32638;BME280;19045;52.268;10.506;2023-04-28T06:16:29;100496.72;;;9.17;54.05
32638;BME280;19045;52.268;10.506;2023-04-28T06:18:56;100497.06;;;9.21;54.04
32638;BME280;19045;52.268;10.506;2023-04-28T06:21:23;100488.56;;;9.29;53.58
32638;BME280;19045;52.268;10.506;2023-04-28T06:23:51;100491.97;;;9.41;53.05
32638;BME280;19045;52.268;10.506;2023-04-28T06:26:20;100480.00;;;9.49;53.24
32638;BME280;19045;52.268;10.506;2023-04-28T06:28:47;100486.84;;;9.61;53.21
32638;BME280;19045;52.268;10.506;2023-04-28T06:31:14;100482.50;;;9.77;52.53
32638;BME280;19045;52.268;10.506;2023-04-28T06:33:42;100485.19;;;9.77;52.06
32638;BME280;19045;52.268;10.506;2023-04-28T06:36:09;100475.94;;;9.90;51.96
32638;BME280;19045;52.268;10.506;2023-04-28T06:38:38;100469.16;;;10.09;51.72
32638;BME280;19045;52.268;10.506;2023-04-28T06:41:04;100474.44;;;10.20;50.82
32638;BME280;19045;52.268;10.506;2023-04-28T06:43:31;100470.47;;;10.28;50.92
32638;BME280;19045;52.268;10.506;2023-04-28T06:45:58;100468.25;;;10.47;50.49
32638;BME280;19045;52.268;10.506;2023-04-28T06:48:25;100455.97;;;10.56;50.39
32638;BME280;19045;52.268;10.506;2023-04-28T06:50:53;100459.31;;;10.41;50.33
32638;BME280;19045;52.268;10.506;2023-04-28T06:53:19;100446.75;;;10.47;50.48
32638;BME280;19045;52.268;10.506;2023-04-28T06:55:46;100447.22;;;10.38;50.23
32638;BME280;19045;52.268;10.506;2023-04-28T06:58:13;100450.00;;;10.49;50.42
32638;BME280;19045;52.268;10.506;2023-04-28T07:00:39;100454.91;;;10.57;50.06
32638;BME280;19045;52.268;10.506;2023-04-28T07:03:06;100447.44;;;10.64;48.96
32638;BME280;19045;52.268;10.506;2023-04-28T07:05:33;100450.75;;;10.76;49.54
32638;BME280;19045;52.268;10.506;2023-04-28T07:08:02;100453.44;;;10.76;49.34
32638;BME280;19045;52.268;10.506;2023-04-28T07:10:28;100459.28;;;10.68;49.60
32638;BME280;19045;52.268;10.506;2023-04-28T07:12:55;100453.66;;;10.69;49.61
32638;BME280;19045;52.268;10.506;2023-04-28T07:15:23;100461.28;;;10.82;49.24
32638;BME280;19045;52.268;10.506;2023-04-28T07:17:50;100456.22;;;10.91;48.70
32638;BME280;19045;52.268;10.506;2023-04-28T07:20:16;100440.38;;;10.95;49.61
32638;BME280;19045;52.268;10.506;2023-04-28T07:22:43;100453.41;;;11.13;48.75
32638;BME280;19045;52.268;10.506;2023-04-28T07:25:11;100446.81;;;11.35;48.47
32638;BME280;19045;52.268;10.506;2023-04-28T07:27:38;100439.09;;;11.49;48.23
32638;BME280;19045;52.268;10.506;2023-04-28T07:30:05;100436.78;;;11.21;48.81
32638;BME280;19045;52.268;10.506;2023-04-28T07:32:32;100432.38;;;11.47;48.39
32638;BME280;19045;52.268;10.506;2023-04-28T07:34:59;100461.44;;;11.50;48.57
32638;BME280;19045;52.268;10.506;2023-04-28T07:37:26;100444.16;;;11.40;49.05
32638;BME280;19045;52.268;10.506;2023-04-28T07:39:52;100444.19;;;11.51;48.74
32638;BME280;19045;52.268;10.506;2023-04-28T07:42:20;100447.78;;;11.66;48.53
32638;BME280;19045;52.268;10.506;2023-04-28T07:44:47;100452.69;;;11.79;48.56
32638;BME280;19045;52.268;10.506;2023-04-28T07:47:14;100447.50;;;11.63;48.81
32638;BME280;19045;52.268;10.506;2023-04-28T07:49:41;100443.19;;;11.67;48.63
32638;BME280;19045;52.268;10.506;2023-04-28T07:52:07;100440.88;;;11.90;48.30
32638;BME280;19045;52.268;10.506;2023-04-28T07:54:35;100447.44;;;12.35;47.63
32638;BME280;19045;52.268;10.506;2023-04-28T07:57:01;100440.44;;;12.49;46.56
32638;BME280;19045;52.268;10.506;2023-04-28T07:59:31;100446.63;;;12.55;47.41
32638;BME280;19045;52.268;10.506;2023-04-28T08:01:58;100448.75;;;12.22;47.82
32638;BME280;19045;52.268;10.506;2023-04-28T08:04:25;100435.78;;;11.99;48.60
32638;BME280;19045;52.268;10.506;2023-04-28T08:06:52;100441.19;;;11.99;48.60
32638;BME280;19045;52.268;10.506;2023-04-28T08:09:18;100432.84;;;12.21;48.40
32638;BME280;19045;52.268;10.506;2023-04-28T08:11:45;100445.53;;;12.35;47.88
32638;BME280;19045;52.268;10.506;2023-04-28T08:14:12;100443.09;;;12.24;48.20
32638;BME280;19045;52.268;10.506;2023-04-28T08:16:39;100439.63;;;12.54;48.19
32638;BME280;19045;52.268;10.506;2023-04-28T08:19:06;100437.72;;;12.84;47.60
32638;BME280;19045;52.268;10.506;2023-04-28T08:21:33;100434.69;;;13.26;46.66
32638;BME280;19045;52.268;10.506;2023-04-28T08:23:59;100433.94;;;13.11;47.27
32638;BME280;19045;52.268;10.506;2023-04-28T08:26:26;100433.59;;;13.37;47.24
32638;BME280;19045;52.268;10.506;2023-04-28T08:28:53;100437.91;;;13.33;46.96
32638;BME280;19045;52.268;10.506;2023-04-28T08:31:20;100429.56;;;13.35;47.17
32638;BME280;19045;52.268;10.506;2023-04-28T08:33:47;100431.97;;;13.36;47.15
32638;BME280;19045;52.268;10.506;2023-04-28T08:36:15;100430.50;;;13.64;46.71
32638;BME280;19045;52.268;10.506;2023-04-28T08:38:42;100425.31;;;13.78;46.66
32638;BME280;19045;52.268;10.506;2023-04-28T08:41:11;100423.59;;;13.97;46.36
32638;BME280;19045;52.268;10.506;2023-04-28T08:43:39;100449.72;;;14.07;46.06
32638;BME280;19045;52.268;10.506;2023-04-28T08:46:08;100433.13;;;13.79;46.16
32638;BME280;19045;52.268;10.506;2023-04-28T08:48:39;100436.13;;;13.78;46.16
32638;BME280;19045;52.268;10.506;2023-04-28T08:51:07;100421.38;;;14.04;45.99
32638;BME280;19045;52.268;10.506;2023-04-28T08:53:36;100423.28;;;14.04;46.17
32638;BME280;19045;52.268;10.506;2023-04-28T08:56:05;100419.03;;;14.31;45.48
32638;BME280;19045;52.268;10.506;2023-04-28T08:58:34;100413.72;;;14.21;45.29
32638;BME280;19045;52.268;10.506;2023-04-28T09:01:01;100415.50;;;13.92;46.11
32638;BME280;19045;52.268;10.506;2023-04-28T09:03:29;100413.53;;;13.54;46.90
32638;BME280;19045;52.268;10.506;2023-04-28T09:05:55;100396.19;;;13.70;47.00
32638;BME280;19045;52.268;10.506;2023-04-28T09:08:24;100418.69;;;13.55;47.19
32638;BME280;19045;52.268;10.506;2023-04-28T09:11:04;100406.78;;;13.61;47.46
32638;BME280;19045;52.268;10.506;2023-04-28T09:13:31;100403.41;;;13.84;47.40
32638;BME280;19045;52.268;10.506;2023-04-28T09:15:59;100410.19;;;13.82;47.15
32638;BME280;19045;52.268;10.506;2023-04-28T09:18:27;100396.13;;;13.80;47.58
32638;BME280;19045;52.268;10.506;2023-04-28T09:21:01;100402.72;;;14.08;46.74
32638;BME280;19045;52.268;10.506;2023-04-28T09:23:30;100380.41;;;14.65;46.24
32638;BME280;19045;52.268;10.506;2023-04-28T09:25:59;100390.78;;;14.81;45.91
32638;BME280;19045;52.268;10.506;2023-04-28T09:28:26;100381.28;;;14.55;45.77
32638;BME280;19045;52.268;10.506;2023-04-28T09:30:52;100382.28;;;14.93;45.43
32638;BME280;19045;52.268;10.506;2023-04-28T09:33:19;100384.66;;;14.42;46.04
32638;BME280;19045;52.268;10.506;2023-04-28T09:35:46;100372.34;;;14.60;46.15
32638;BME280;19045;52.268;10.506;2023-04-28T09:38:13;100366.59;;;14.37;47.24
32638;BME280;19045;52.268;10.506;2023-04-28T09:40:51;100374.50;;;14.24;47.37
32638;BME280;19045;52.268;10.506;2023-04-28T09:43:26;100363.09;;;13.98;47.69
32638;BME280;19045;52.268;10.506;2023-04-28T09:45:53;100360.38;;;13.98;48.26
32638;BME280;19045;52.268;10.506;2023-04-28T09:48:28;100359.72;;;13.77;48.71
32638;BME280;19045;52.268;10.506;2023-04-28T09:50:55;100364.03;;;13.73;49.26
32638;BME280;19045;52.268;10.506;2023-04-28T09:53:23;100358.03;;;13.86;48.58
32638;BME280;19045;52.268;10.506;2023-04-28T09:55:53;100355.94;;;13.78;48.79
32638;BME280;19045;52.268;10.506;2023-04-28T09:58:21;100349.16;;;13.81;48.58
32638;BME280;19045;52.268;10.506;2023-04-28T10:00:51;100353.00;;;13.70;49.27
32638;BME280;19045;52.268;10.506;2023-04-28T10:03:20;100350.47;;;13.88;49.34
32638;BME280;19045;52.268;10.506;2023-04-28T10:05:50;100349.09;;;14.25;48.94
32638;BME280;19045;52.268;10.506;2023-04-28T10:08:18;100343.69;;;14.25;48.46
32638;BME280;19045;52.268;10.506;2023-04-28T10:10:47;100340.13;;;14.29;48.73
32638;BME280;19045;52.268;10.506;2023-04-28T10:13:16;100338.31;;;14.20;48.70
32638;BME280;19045;52.268;10.506;2023-04-28T10:15:43;100343.78;;;14.15;48.66
32638;BME280;19045;52.268;10.506;2023-04-28T10:18:11;100333.97;;;13.90;49.55
32638;BME280;19045;52.268;10.506;2023-04-28T10:20:41;100329.66;;;13.89;50.00
32638;BME280;19045;52.268;10.506;2023-04-28T10:23:27;100337.16;;;13.58;51.73
32638;BME280;19045;52.268;10.506;2023-04-28T10:25:56;100328.28;;;13.91;50.97
32638;BME280;19045;52.268;10.506;2023-04-28T10:28:25;100329.66;;;13.89;50.94
32638;BME280;19045;52.268;10.506;2023-04-28T10:31:08;100329.88;;;13.97;50.89
32638;BME280;19045;52.268;10.506;2023-04-28T10:33:35;100327.81;;;13.84;51.96
32638;BME280;19045;52.268;10.506;2023-04-28T10:36:02;100319.31;;;14.01;51.74
32638;BME280;19045;52.268;10.506;2023-04-28T10:38:29;100314.66;;;14.07;51.53
32638;BME280;19045;52.268;10.506;2023-04-28T10:40:56;100317.84;;;14.14;51.54
32638;BME280;19045;52.268;10.506;2023-04-28T10:43:35;100319.66;;;14.23;51.43
32638;BME280;19045;52.268;10.506;2023-04-28T10:46:07;100316.03;;;14.04;51.70
32638;BME280;19045;52.268;10.506;2023-04-28T10:49:04;100311.03;;;14.21;52.01
32638;BME280;19045;52.268;10.506;2023-04-28T10:51:32;100316.47;;;14.16;52.29
32638;BME280;19045;52.268;10.506;2023-04-28T10:54:22;100316.69;;;14.25;52.23
32638;BME280;19045;52.268;10.506;2023-04-28T10:57:14;100304.44;;;14.37;52.49
32638;BME280;19045;52.268;10.506;2023-04-28T10:59:43;100301.72;;;14.32;52.16
32638;BME280;19045;52.268;10.506;2023-04-28T11:02:38;100308.28;;;14.55;51.81
32638;BME280;19045;52.268;10.506;2023-04-28T11:05:12;100313.06;;;14.39;51.61
32638;BME280;19045;52.268;10.506;2023-04-28T11:07:39;100313.06;;;14.39;52.34
32638;BME280;19045;52.268;10.506;2023-04-28T11:10:07;100305.56;;;14.26;52.65
32638;BME280;19045;52.268;10.506;2023-04-28T11:12:33;100301.28;;;14.54;52.53
32638;BME280;19045;52.268;10.506;2023-04-28T11:15:12;100307.50;;;14.55;52.57
32638;BME280;19045;52.268;10.506;2023-04-28T11:17:40;100302.22;;;14.44;52.78
32638;BME280;19045;52.268;10.506;2023-04-28T11:20:11;100305.97;;;14.15;53.53
32638;BME280;19045;52.268;10.506;2023-04-28T11:22:39;100298.44;;;14.07;53.91
32638;BME280;19045;52.268;10.506;2023-04-28T11:25:06;100302.47;;;14.09;53.92
32638;BME280;19045;52.268;10.506;2023-04-28T11:27:33;100290.88;;;14.09;53.79
32638;BME280;19045;52.268;10.506;2023-04-28T11:30:01;100294.59;;;14.18;54.15
32638;BME280;19045;52.268;10.506;2023-04-28T11:32:31;100288.84;;;14.24;54.10
32638;BME280;19045;52.268;10.506;2023-04-28T11:34:58;100294.03;;;14.21;54.39
32638;BME280;19045;52.268;10.506;2023-04-28T11:37:25;100294.75;;;14.31;53.35
32638;BME280;19045;52.268;10.506;2023-04-28T11:39:52;100289.88;;;14.33;53.67
32638;BME280;19045;52.268;10.506;2023-04-28T11:42:19;100298.78;;;14.34;53.95
32638;BME280;19045;52.268;10.506;2023-04-28T11:44:49;100295.84;;;14.25;54.46
32638;BME280;19045;52.268;10.506;2023-04-28T11:47:27;100299.09;;;13.93;55.25
32638;BME280;19045;52.268;10.506;2023-04-28T11:49:56;100292.41;;;13.86;55.78
32638;BME280;19045;52.268;10.506;2023-04-28T11:52:23;100299.50;;;13.77;55.41
32638;BME280;19045;52.268;10.506;2023-04-28T11:54:55;100282.72;;;13.80;56.01
32638;BME280;19045;52.268;10.506;2023-04-28T11:57:23;100283.81;;;13.79;56.25
32638;BME280;19045;52.268;10.506;2023-04-28T11:59:51;100271.13;;;13.79;56.04
32638;BME280;19045;52.268;10.506;2023-04-28T12:02:24;100265.38;;;13.91;55.93
32638;BME280;19045;52.268;10.506;2023-04-28T12:04:53;100263.00;;;14.13;54.90
32638;BME280;19045;52.268;10.506;2023-04-28T12:07:21;100272.81;;;14.38;54.37
32638;BME280;19045;52.268;10.506;2023-04-28T12:10:12;100273.84;;;14.42;54.43
32638;BME280;19045;52.268;10.506;2023-04-28T12:12:46;100259.50;;;14.13;55.45
32638;BME280;19045;52.268;10.506;2023-04-28T12:15:12;100271.25;;;13.98;55.81
32638;BME280;19045;52.268;10.506;2023-04-28T12:17:45;100263.75;;;13.90;56.70
32638;BME280;19045;52.268;10.506;2023-04-28T12:20:33;100266.22;;;13.86;57.32
32638;BME280;19045;52.268;10.506;2023-04-28T12:25:28;100256.13;;;13.97;57.26
32638;BME280;19045;52.268;10.506;2023-04-28T12:27:58;100246.16;;;13.97;57.53
32638;BME280;19045;52.268;10.506;2023-04-28T12:30:27;100245.25;;;14.07;57.38
32638;BME280;19045;52.268;10.506;2023-04-28T12:32:54;100253.00;;;14.14;57.48
32638;BME280;19045;52.268;10.506;2023-04-28T12:35:22;100253.91;;;14.04;58.15
32638;BME280;19045;52.268;10.506;2023-04-28T12:37:48;100245.56;;;14.01;58.31
32638;BME280;19045;52.268;10.506;2023-04-28T12:40:17;100247.22;;;13.96;58.94
32638;BME280;19045;52.268;10.506;2023-04-28T12:42:43;100239.22;;;13.86;59.97
32638;BME280;19045;52.268;10.506;2023-04-28T12:45:10;100242.78;;;13.82;60.18
32638;BME280;19045;52.268;10.506;2023-04-28T12:47:37;100250.66;;;13.73;61.01
32638;BME280;19045;52.268;10.506;2023-04-28T12:50:05;100251.19;;;13.75;61.73
32638;BME280;19045;52.268;10.506;2023-04-28T12:52:31;100256.03;;;13.78;61.92